Time;durP1;ratioP1;P1;durP2;ratioP2;P2;SDS_P1;SDS_P2;PMS_P1;PMS_P2;Temp;Humidity;BMP_temperature;BMP_pressure;BME280_temperature;BME280_humidity;BME280_pressure;Samples;Min_cycle;Max_cycle;Signal;HPM_P1;HPM_P2
2022/03/10 00:00:08;;;;;;;12.13;9.75;;;0.10;68.90;;;;;;5034760;28;20017;-65
2022/03/10 00:02:34;;;;;;;10.38;9.02;;;0.00;68.70;;;;;;5034600;28;20022;-65
2022/03/10 00:05:01;;;;;;;10.77;9.68;;;0.00;68.90;;;;;;5034646;28;20018;-65
2022/03/10 00:07:26;;;;;;;9.88;8.88;;;0.00;68.70;;;;;;5034621;28;20012;-65
2022/03/10 00:09:52;;;;;;;12.25;10.23;;;0.00;68.50;;;;;;5034491;28;20025;-65
2022/03/10 00:12:18;;;;;;;9.95;8.80;;;0.00;68.50;;;;;;5040512;28;20566;-65
2022/03/10 00:14:43;;;;;;;9.90;8.55;;;-0.10;68.50;;;;;;5032320;28;20025;-65
2022/03/10 00:17:09;;;;;;;9.35;8.35;;;-0.10;68.30;;;;;;5018540;28;20017;-65
2022/03/10 00:19:35;;;;;;;9.63;8.18;;;-0.20;67.70;;;;;;5025630;28;20091;-65
2022/03/10 00:22:02;;;;;;;12.93;8.52;;;-0.20;67.60;;;;;;5034266;28;20029;-65
2022/03/10 00:24:28;;;;;;;11.15;9.07;;;-0.30;67.30;;;;;;5034268;28;20541;-65
2022/03/10 00:26:54;;;;;;;9.80;8.45;;;-0.30;67.70;;;;;;5034178;28;20052;-65
2022/03/10 00:29:20;;;;;;;11.82;9.27;;;-0.30;67.40;;;;;;5033114;28;20025;-65
2022/03/10 00:31:45;;;;;;;10.98;8.85;;;-0.40;67.10;;;;;;5033889;28;20026;-65
2022/03/10 00:34:11;;;;;;;9.60;8.63;;;-0.50;67.30;;;;;;5034177;28;20137;-65
2022/03/10 00:36:37;;;;;;;9.60;8.45;;;-0.50;67.40;;;;;;5034524;28;20045;-65
2022/03/10 00:39:03;;;;;;;10.40;8.80;;;-0.50;67.20;;;;;;5034073;28;20508;-65
2022/03/10 00:41:29;;;;;;;10.95;9.48;;;-0.60;67.40;;;;;;5033831;28;20416;-65
2022/03/10 00:43:55;;;;;;;11.20;9.18;;;-0.60;67.10;;;;;;5032623;28;20047;-65
2022/03/10 00:46:21;;;;;;;11.48;9.60;;;-0.60;67.30;;;;;;5033728;28;20033;-65
2022/03/10 00:48:47;;;;;;;12.73;7.38;;;-0.60;67.10;;;;;;5033781;28;20025;-65
2022/03/10 00:51:12;;;;;;;12.75;9.73;;;-0.70;66.90;;;;;;5033717;28;20097;-65
2022/03/10 00:53:38;;;;;;;12.63;10.20;;;-0.80;67.10;;;;;;5033093;28;20113;-65
2022/03/10 00:56:04;;;;;;;11.77;9.43;;;-0.80;67.00;;;;;;5033969;28;20048;-65
2022/03/10 00:58:30;;;;;;;12.13;10.73;;;-0.80;66.80;;;;;;5033493;28;20022;-65
2022/03/10 01:00:56;;;;;;;10.75;9.60;;;-0.70;66.80;;;;;;5033500;28;20028;-65
2022/03/10 01:03:23;;;;;;;14.02;10.60;;;-0.70;66.50;;;;;;5041689;28;20107;-65
2022/03/10 01:05:49;;;;;;;12.55;11.25;;;-0.80;66.30;;;;;;5032991;28;20474;-65
2022/03/10 01:08:15;;;;;;;14.23;10.80;;;-0.80;66.80;;;;;;5033385;28;20032;-65
2022/03/10 01:10:41;;;;;;;13.52;11.52;;;-0.80;66.80;;;;;;5033405;28;20405;-65
2022/03/10 01:13:15;;;;;;;11.20;10.02;;;-0.80;66.90;;;;;;5033317;28;20080;-65
2022/03/10 01:15:42;;;;;;;11.60;9.93;;;-0.80;66.60;;;;;;5028356;28;20022;-65
2022/03/10 01:18:09;;;;;;;12.85;10.45;;;-0.90;66.50;;;;;;5015874;28;20030;-65
2022/03/10 01:20:35;;;;;;;12.57;7.40;;;-0.90;66.40;;;;;;5040524;28;20075;-65
2022/03/10 01:23:00;;;;;;;11.30;10.07;;;-1.10;66.50;;;;;;5033153;28;20021;-65
2022/03/10 01:25:26;;;;;;;14.48;10.73;;;-1.10;67.10;;;;;;5033241;28;20037;-65
2022/03/10 01:27:52;;;;;;;12.05;10.63;;;-1.10;67.10;;;;;;5033249;28;20029;-65
2022/03/10 01:30:18;;;;;;;12.65;7.15;;;-1.10;67.00;;;;;;5033061;28;20033;-65
2022/03/10 01:32:45;;;;;;;12.73;11.32;;;-1.20;67.20;;;;;;5033020;28;20555;-65
2022/03/10 01:35:11;;;;;;;12.45;7.85;;;-1.20;67.50;;;;;;5031568;28;20401;-65
2022/03/10 01:37:37;;;;;;;13.27;11.13;;;-1.20;67.60;;;;;;5037635;28;20104;-65
2022/03/10 01:40:09;;;;;;;12.70;11.15;;;-1.20;67.70;;;;;;5032866;28;20052;-65
2022/03/10 01:42:35;;;;;;;;;;;-1.20;67.80;;;;;;5033443;28;20445;-65
2022/03/10 01:45:01;;;;;;;13.95;8.13;;;-1.20;68.00;;;;;;5031340;28;20012;-65
2022/03/10 01:47:27;;;;;;;15.38;11.23;;;-1.30;67.90;;;;;;5019456;28;20033;-65
2022/03/10 01:49:52;;;;;;;13.80;11.38;;;-1.20;67.90;;;;;;5032700;28;20026;-65
2022/03/10 01:52:20;;;;;;;14.23;11.77;;;-1.30;67.50;;;;;;5032940;28;20370;-65
2022/03/10 01:54:46;;;;;;;15.52;12.55;;;-1.30;67.30;;;;;;5035105;28;20567;-65
2022/03/10 01:57:12;;;;;;;14.38;11.77;;;-1.40;66.90;;;;;;5032683;28;20391;-65
2022/03/10 01:59:41;;;;;;;13.73;12.25;;;-1.50;66.60;;;;;;5032711;28;20021;-65
2022/03/10 02:02:08;;;;;;;14.95;12.63;;;-1.50;66.70;;;;;;5032671;28;20021;-65
2022/03/10 02:04:34;;;;;;;15.93;9.00;;;-1.60;66.90;;;;;;5032909;28;20029;-65
2022/03/10 02:07:06;;;;;;;15.10;12.35;;;-1.70;67.00;;;;;;5031533;28;20021;-65
2022/03/10 02:12:17;;;;;;;13.88;12.48;;;-1.90;67.20;;;;;;5043299;28;20096;-65
2022/03/10 02:17:28;;;;;;;15.68;13.13;;;-1.90;68.00;;;;;;5033406;28;20445;-65
2022/03/10 02:19:58;;;;;;;13.23;7.60;;;-1.90;67.90;;;;;;5036431;28;20029;-65
2022/03/10 02:22:25;;;;;;;14.27;12.05;;;-2.00;67.80;;;;;;5036426;28;20030;-65
2022/03/10 02:24:52;;;;;;;13.50;8.43;;;-2.10;67.60;;;;;;5036362;28;20025;-65
2022/03/10 02:27:27;;;;;;;14.77;11.30;;;-2.10;67.30;;;;;;5039160;28;20029;-65
2022/03/10 02:30:00;;;;;;;14.00;8.65;;;-2.20;67.80;;;;;;5038919;28;20469;-65
2022/03/10 02:32:26;;;;;;;11.82;10.15;;;-2.20;67.90;;;;;;5036359;28;20025;-65
2022/03/10 02:34:52;;;;;;;12.57;11.07;;;-2.20;67.90;;;;;;5035158;28;20041;-65
2022/03/10 02:37:19;;;;;;;12.20;10.65;;;-2.20;67.50;;;;;;5036534;28;20457;-65
2022/03/10 02:39:46;;;;;;;12.43;10.55;;;-2.20;67.50;;;;;;5034654;28;20025;-65
2022/03/10 02:42:15;;;;;;;13.32;10.65;;;-2.20;67.20;;;;;;5034896;28;20493;-65
2022/03/10 02:44:44;;;;;;;13.73;6.72;;;-2.30;67.10;;;;;;5041025;28;20025;-65
2022/03/10 02:47:10;;;;;;;11.93;6.65;;;-2.40;67.10;;;;;;5036530;28;20560;-65
2022/03/10 02:49:37;;;;;;;11.73;9.45;;;-2.50;67.50;;;;;;5036088;28;20053;-65
2022/03/10 02:52:03;;;;;;;11.95;7.40;;;-2.50;67.80;;;;;;5039274;28;20032;-65
2022/03/10 02:54:30;;;;;;;11.10;9.73;;;-2.50;67.70;;;;;;5044997;28;20124;-65
2022/03/10 02:56:56;;;;;;;11.60;9.77;;;-2.50;67.90;;;;;;5035848;28;20021;-65
2022/03/10 02:59:22;;;;;;;12.10;9.40;;;-2.50;67.50;;;;;;5035888;28;20017;-65
2022/03/10 03:01:48;;;;;;;14.02;9.65;;;-2.50;67.10;;;;;;5039173;28;20037;-65
2022/03/10 03:04:13;;;;;;;11.68;9.60;;;-2.50;66.80;;;;;;5035660;28;20022;-65
2022/03/10 03:06:39;;;;;;;10.43;8.52;;;-2.50;66.50;;;;;;5035650;28;20394;-65
2022/03/10 03:09:05;;;;;;;11.45;9.45;;;-2.60;66.50;;;;;;5035669;28;20441;-65
2022/03/10 03:11:30;;;;;;;9.38;6.18;;;-2.60;66.60;;;;;;5034735;28;20075;-65
2022/03/10 03:13:56;;;;;;;10.25;8.35;;;-2.80;66.40;;;;;;5035437;28;20509;-65
2022/03/10 03:16:24;;;;;;;12.70;7.43;;;-2.80;66.70;;;;;;5034903;28;20025;-65
2022/03/10 03:18:50;;;;;;;9.73;5.95;;;-2.90;66.80;;;;;;5042377;28;20017;-65
2022/03/10 03:21:16;;;;;;;11.10;6.47;;;-3.10;67.10;;;;;;5038675;28;20091;-65
2022/03/10 03:23:41;;;;;;;11.80;9.55;;;-3.10;67.50;;;;;;5034989;28;20022;-65
2022/03/10 03:26:07;;;;;;;7.00;5.55;;;-3.10;68.00;;;;;;5034743;28;20124;-65
2022/03/10 03:28:33;;;;;;;9.43;7.85;;;-3.10;67.80;;;;;;5034907;28;20033;-65
2022/03/10 03:30:59;;;;;;;9.32;8.32;;;-3.00;67.70;;;;;;5035356;28;20049;-65
2022/03/10 03:33:24;;;;;;;8.13;5.18;;;-3.00;67.30;;;;;;5034536;28;20108;-65
2022/03/10 03:35:50;;;;;;;9.10;5.63;;;-3.10;67.10;;;;;;5041658;28;20075;-65
2022/03/10 03:38:16;;;;;;;8.68;7.63;;;-3.10;67.50;;;;;;5039135;28;20029;-65
2022/03/10 03:40:41;;;;;;;8.57;7.38;;;-3.10;67.50;;;;;;5024888;28;20482;-65
2022/03/10 03:43:07;;;;;;;9.75;5.80;;;-3.10;67.30;;;;;;5019943;28;20671;-65
2022/03/10 03:45:33;;;;;;;10.73;6.25;;;-3.10;67.10;;;;;;5032785;28;20163;-65
2022/03/10 03:47:59;;;;;;;10.52;9.10;;;-3.20;67.20;;;;;;5034452;28;20037;-65
2022/03/10 03:50:24;;;;;;;11.30;6.30;;;-3.20;67.30;;;;;;5034873;28;20095;-65
2022/03/10 03:52:50;;;;;;;10.15;7.85;;;-3.30;67.00;;;;;;5039164;28;20044;-65
2022/03/10 03:55:16;;;;;;;12.30;7.30;;;-3.30;67.10;;;;;;5034209;28;20113;-65
2022/03/10 03:57:42;;;;;;;8.60;7.68;;;-3.30;66.90;;;;;;5034368;28;20025;-65
2022/03/10 04:00:10;;;;;;;8.70;7.70;;;-3.30;66.80;;;;;;5034503;28;20117;-64
2022/03/10 04:02:36;;;;;;;9.20;8.13;;;-3.30;66.80;;;;;;5034865;28;20088;-66
2022/03/10 04:05:03;;;;;;;8.15;5.70;;;-3.20;66.40;;;;;;5034746;28;20022;-65
2022/03/10 04:07:29;;;;;;;11.52;5.10;;;-3.40;66.10;;;;;;5034174;28;20026;-65
2022/03/10 04:09:55;;;;;;;9.57;8.23;;;-3.50;66.50;;;;;;5036854;28;20080;-65
2022/03/10 04:12:21;;;;;;;10.32;7.88;;;-3.40;66.90;;;;;;5024372;28;20037;-65
2022/03/10 04:14:46;;;;;;;8.88;5.72;;;-3.40;66.70;;;;;;5034358;28;20083;-65
2022/03/10 04:17:12;;;;;;;7.32;6.03;;;-3.40;66.30;;;;;;5034386;28;20026;-66
2022/03/10 04:19:38;;;;;;;8.95;5.88;;;-3.50;66.50;;;;;;5020838;28;20041;-65
2022/03/10 04:22:04;;;;;;;9.32;7.57;;;-3.60;66.60;;;;;;5034303;28;20359;-65
2022/03/10 04:24:30;;;;;;;11.30;5.75;;;-3.60;67.10;;;;;;5032901;28;20025;-65
2022/03/10 04:26:56;;;;;;;9.88;6.25;;;-3.60;66.80;;;;;;5035735;28;20041;-64
2022/03/10 04:29:22;;;;;;;8.20;5.75;;;-3.70;66.90;;;;;;5034142;28;20010;-65
2022/03/10 04:31:48;;;;;;;9.52;7.93;;;-3.70;66.90;;;;;;5033969;28;20029;-65
2022/03/10 04:34:13;;;;;;;9.27;8.13;;;-3.60;66.90;;;;;;5033636;28;20405;-65
2022/03/10 04:36:39;;;;;;;8.23;6.28;;;-3.60;66.70;;;;;;5033371;28;20029;-65
2022/03/10 04:39:05;;;;;;;9.20;7.78;;;-3.60;67.10;;;;;;5033887;28;20024;-65
2022/03/10 04:41:31;;;;;;;11.02;6.00;;;-3.50;67.30;;;;;;5032934;28;20355;-65
2022/03/10 04:43:57;;;;;;;10.57;6.07;;;-3.50;66.40;;;;;;5040761;28;20025;-65
2022/03/10 04:46:23;;;;;;;8.35;7.15;;;-3.50;66.40;;;;;;5038016;28;20030;-65
2022/03/10 04:48:49;;;;;;;9.68;6.05;;;-3.50;66.40;;;;;;5033878;28;20104;-64
2022/03/10 04:51:15;;;;;;;10.52;8.15;;;-3.50;65.50;;;;;;5032079;28;20095;-65
2022/03/10 04:53:41;;;;;;;9.95;5.75;;;-3.50;65.80;;;;;;5032446;28;20432;-65
2022/03/10 04:56:07;;;;;;;9.70;7.28;;;-3.50;65.70;;;;;;5033384;28;20079;-65
2022/03/10 04:58:32;;;;;;;10.07;8.27;;;-3.40;65.90;;;;;;5033691;28;20033;-65
2022/03/10 05:00:58;;;;;;;9.65;6.72;;;-3.30;65.50;;;;;;5041948;28;20116;-65
2022/03/10 05:03:24;;;;;;;9.90;8.43;;;-3.30;65.40;;;;;;5033665;28;20060;-64
2022/03/10 05:05:50;;;;;;;8.73;7.82;;;-3.20;65.40;;;;;;5033535;28;20488;-65
2022/03/10 05:08:16;;;;;;;10.82;6.63;;;-3.20;65.00;;;;;;5033488;28;20503;-65
2022/03/10 05:10:41;;;;;;;10.95;7.93;;;-3.20;64.70;;;;;;5032632;28;20416;-65
2022/03/10 05:13:07;;;;;;;11.10;6.35;;;-3.10;65.00;;;;;;5033330;28;20079;-64
2022/03/10 05:15:33;;;;;;;10.43;6.50;;;-3.10;64.90;;;;;;5032762;28;20473;-64
2022/03/10 05:18:01;;;;;;;9.50;8.07;;;-3.00;65.20;;;;;;5041099;28;20025;-64
2022/03/10 05:20:28;;;;;;;9.75;8.18;;;-2.90;65.20;;;;;;5033195;28;20033;-64
2022/03/10 05:22:56;;;;;;;8.80;5.72;;;-2.80;64.80;;;;;;5033080;28;20022;-64
2022/03/10 05:25:32;;;;;;;11.55;8.82;;;-2.70;64.00;;;;;;5032854;28;20025;-64
2022/03/10 05:27:58;;;;;;;9.32;5.80;;;-2.60;63.90;;;;;;5033339;28;20037;-64
2022/03/10 05:30:24;;;;;;;8.90;8.00;;;-2.70;64.00;;;;;;5033508;28;20037;-65
2022/03/10 05:32:50;;;;;;;9.00;7.78;;;-2.60;63.80;;;;;;5033143;28;20136;-65
2022/03/10 05:35:19;;;;;;;10.63;6.13;;;-2.50;63.40;;;;;;5036769;28;20506;-65
2022/03/10 05:37:46;;;;;;;8.05;7.13;;;-2.50;63.10;;;;;;5033414;28;20056;-65
2022/03/10 05:40:15;;;;;;;9.52;8.07;;;-2.30;63.40;;;;;;5032712;28;20021;-64
2022/03/10 05:42:42;;;;;;;8.25;5.78;;;-2.10;62.40;;;;;;5022160;28;20033;-65
2022/03/10 05:45:08;;;;;;;8.40;7.45;;;-2.10;62.20;;;;;;5033127;28;20542;-65
2022/03/10 05:47:35;;;;;;;8.93;7.72;;;-2.00;61.60;;;;;;5033131;28;20022;-65
2022/03/10 05:50:04;;;;;;;9.32;6.03;;;-1.90;60.50;;;;;;5033119;28;20428;-65
2022/03/10 05:52:31;;;;;;;9.40;7.50;;;-1.90;61.40;;;;;;5047532;28;20025;-65
2022/03/10 05:54:57;;;;;;;8.18;6.93;;;-1.70;61.30;;;;;;5036764;28;20454;-65
2022/03/10 05:57:23;;;;;;;8.95;6.90;;;-1.40;60.10;;;;;;5036877;28;20018;-65
2022/03/10 05:59:48;;;;;;;8.30;5.50;;;-1.30;59.30;;;;;;5037010;28;20030;-64
2022/03/10 06:02:18;;;;;;;9.20;7.18;;;-1.20;59.00;;;;;;5036589;28;20025;-65
2022/03/10 06:04:44;;;;;;;7.57;6.78;;;-1.10;58.60;;;;;;5036809;28;20381;-65
2022/03/10 06:07:10;;;;;;;7.78;6.97;;;-1.10;57.80;;;;;;5035565;28;20440;-65
2022/03/10 06:09:36;;;;;;;8.35;6.80;;;-1.00;57.80;;;;;;5043542;28;20036;-65
2022/03/10 06:12:02;;;;;;;7.78;6.55;;;-1.00;57.10;;;;;;5036979;28;20033;-65
2022/03/10 06:14:28;;;;;;;7.05;6.35;;;-0.90;57.00;;;;;;5036849;28;20034;-65
2022/03/10 06:16:54;;;;;;;8.90;6.70;;;-0.60;56.90;;;;;;5036759;28;20026;-65
2022/03/10 06:19:20;;;;;;;6.70;6.00;;;-0.30;56.10;;;;;;5036764;28;20017;-65
2022/03/10 06:21:47;;;;;;;8.82;6.20;;;0.00;55.30;;;;;;5036776;28;20025;-65
2022/03/10 06:24:13;;;;;;;6.00;4.32;;;0.20;54.50;;;;;;5036468;28;20037;-65
2022/03/10 06:26:39;;;;;;;7.20;5.63;;;0.40;54.90;;;;;;5044119;28;20025;-65
2022/03/10 06:29:05;;;;;;;7.40;4.80;;;0.50;54.60;;;;;;5037269;28;20093;-65
2022/03/10 06:31:32;;;;;;;7.70;4.55;;;0.60;54.30;;;;;;5036244;28;20108;-65
2022/03/10 06:33:58;;;;;;;6.70;5.53;;;0.60;55.00;;;;;;5036378;28;20022;-65
2022/03/10 06:36:25;;;;;;;6.05;5.45;;;0.80;54.00;;;;;;5036130;28;20030;-65
2022/03/10 06:38:51;;;;;;;7.45;4.63;;;0.80;52.80;;;;;;5033743;28;20025;-65
2022/03/10 06:41:18;;;;;;;6.40;4.68;;;0.60;52.50;;;;;;5032125;28;20024;-67
2022/03/10 06:43:44;;;;;;;6.22;3.90;;;0.30;53.00;;;;;;5026947;28;20041;-65
2022/03/10 06:46:09;;;;;;;6.47;5.25;;;0.00;53.10;;;;;;5028653;28;20390;-65
2022/03/10 06:48:35;;;;;;;7.75;4.78;;;-0.20;53.40;;;;;;5033096;28;20029;-65
2022/03/10 06:51:01;;;;;;;5.95;5.18;;;-0.50;53.70;;;;;;5032314;28;20034;-65
2022/03/10 06:53:27;;;;;;;6.00;5.38;;;-0.70;54.10;;;;;;5025195;28;20462;-65
2022/03/10 06:55:53;;;;;;;7.88;5.78;;;-0.80;54.00;;;;;;5025551;28;20039;-66
2022/03/10 06:58:19;;;;;;;7.10;5.60;;;-1.00;53.40;;;;;;5041062;28;20017;-65
2022/03/10 07:00:45;;;;;;;7.45;5.47;;;-1.10;53.70;;;;;;5026611;28;20037;-65
2022/03/10 07:03:10;;;;;;;7.30;5.75;;;-1.20;54.20;;;;;;5036499;28;20025;-65
2022/03/10 07:05:36;;;;;;;6.80;5.70;;;-1.20;53.80;;;;;;5028579;28;20033;-65
2022/03/10 07:08:02;;;;;;;6.70;4.85;;;-1.30;54.30;;;;;;5027123;28;20028;-65
2022/03/10 07:10:28;;;;;;;8.65;5.80;;;-1.40;53.40;;;;;;5027761;28;20046;-65
2022/03/10 07:12:57;;;;;;;7.05;5.25;;;-1.50;53.60;;;;;;5040245;28;20029;-65
2022/03/10 07:15:23;;;;;;;7.25;5.75;;;-1.50;53.90;;;;;;5032594;28;20022;-65
2022/03/10 07:17:49;;;;;;;6.35;5.47;;;-1.60;54.30;;;;;;5025509;28;20440;-65
2022/03/10 07:20:18;;;;;;;7.22;5.65;;;-1.50;54.50;;;;;;5031217;28;20112;-66
2022/03/10 07:22:45;;;;;;;7.03;5.20;;;-1.60;53.50;;;;;;5020417;28;20021;-69
2022/03/10 07:25:11;;;;;;;8.48;5.72;;;-1.60;53.00;;;;;;5021973;28;20041;-64
2022/03/10 07:27:37;;;;;;;7.00;5.30;;;-1.70;52.90;;;;;;5020445;28;20025;-64
2022/03/10 07:30:04;;;;;;;6.78;5.28;;;-1.80;53.10;;;;;;5018085;28;20029;-65
2022/03/10 07:32:29;;;;;;;6.82;4.45;;;-1.90;53.20;;;;;;5022182;28;20136;-65
2022/03/10 07:34:55;;;;;;;5.63;5.00;;;-2.00;53.60;;;;;;5030695;28;20045;-65
2022/03/10 07:37:21;;;;;;;6.35;4.40;;;-2.00;53.50;;;;;;5020055;28;20513;-66
2022/03/10 07:39:47;;;;;;;6.95;5.50;;;-2.10;53.30;;;;;;5026331;28;20029;-66
2022/03/10 07:42:13;;;;;;;5.80;5.25;;;-2.10;53.50;;;;;;5022622;28;20069;-66
2022/03/10 07:44:39;;;;;;;6.18;5.13;;;-2.10;54.20;;;;;;5013721;28;20127;-66
2022/03/10 07:47:05;;;;;;;8.07;4.13;;;-2.10;53.50;;;;;;5022986;28;20030;-66
2022/03/10 07:49:32;;;;;;;6.05;4.22;;;-2.10;53.30;;;;;;5023236;28;20490;-64
2022/03/10 07:52:00;;;;;;;6.30;4.80;;;-2.20;53.60;;;;;;5023296;28;20393;-64
2022/03/10 07:54:26;;;;;;;6.85;5.43;;;-2.20;53.70;;;;;;5023842;28;20120;-64
2022/03/10 07:56:52;;;;;;;6.35;4.97;;;-2.10;53.80;;;;;;5019772;28;20519;-64
2022/03/10 07:59:18;;;;;;;5.93;5.32;;;-2.10;53.70;;;;;;5019818;28;20022;-64
2022/03/10 08:01:44;;;;;;;6.50;5.60;;;-2.10;54.00;;;;;;5023154;28;20037;-64
2022/03/10 08:04:10;;;;;;;6.68;5.07;;;-2.00;54.20;;;;;;5024579;28;20057;-64
2022/03/10 08:06:36;;;;;;;5.78;4.97;;;-2.00;54.00;;;;;;5024211;28;20025;-64
2022/03/10 08:09:02;;;;;;;6.22;5.13;;;-1.90;54.40;;;;;;5025702;28;20029;-64
2022/03/10 08:11:28;;;;;;;6.82;5.40;;;-1.90;54.50;;;;;;5020124;28;20037;-64
2022/03/10 08:13:54;;;;;;;6.15;5.05;;;-1.90;53.70;;;;;;5025255;28;20247;-64
2022/03/10 08:16:20;;;;;;;5.63;3.83;;;-1.90;53.30;;;;;;5029862;28;20390;-65
2022/03/10 08:18:48;;;;;;;7.03;5.43;;;-2.00;53.30;;;;;;5020060;28;20489;-64
2022/03/10 08:21:15;;;;;;;6.90;5.05;;;-2.00;53.70;;;;;;5025111;28;20033;-64
2022/03/10 08:23:41;;;;;;;5.63;4.97;;;-2.00;53.50;;;;;;5029639;28;20120;-64
2022/03/10 08:26:08;;;;;;;6.53;5.45;;;-2.00;53.00;;;;;;5031198;28;20537;-64
2022/03/10 08:28:34;;;;;;;5.20;3.75;;;-2.00;52.90;;;;;;5015341;28;20036;-64
2022/03/10 08:31:03;;;;;;;6.00;4.10;;;-2.10;53.00;;;;;;5011305;28;20049;-65
2022/03/10 08:33:30;;;;;;;5.82;4.20;;;-2.20;53.10;;;;;;5010806;28;20022;-66
2022/03/10 08:35:56;;;;;;;5.78;4.60;;;-2.20;52.90;;;;;;5014551;28;20038;-66
2022/03/10 08:38:22;;;;;;;6.65;5.18;;;-2.10;52.90;;;;;;5019731;28;20026;-66
2022/03/10 08:40:47;;;;;;;5.18;3.70;;;-2.10;52.90;;;;;;5018969;28;20033;-66
2022/03/10 08:43:15;;;;;;;6.85;4.22;;;-2.20;53.30;;;;;;5016036;28;20079;-66
2022/03/10 08:45:41;;;;;;;7.05;5.18;;;-2.20;54.00;;;;;;5026383;28;20112;-66
2022/03/10 08:48:08;;;;;;;7.00;5.55;;;-2.20;54.50;;;;;;5016529;28;20041;-65
2022/03/10 08:50:34;;;;;;;7.43;5.25;;;-2.10;54.00;;;;;;5022366;28;20025;-65
2022/03/10 08:53:03;;;;;;;6.07;5.00;;;-2.10;54.10;;;;;;5018714;28;20091;-67
2022/03/10 08:55:29;;;;;;;5.95;4.90;;;-2.10;54.00;;;;;;5036328;28;20045;-67
2022/03/10 08:57:55;;;;;;;6.90;3.83;;;-2.10;53.40;;;;;;5011522;28;20018;-67
2022/03/10 09:00:21;;;;;;;6.28;4.93;;;-2.20;53.30;;;;;;5017131;28;20049;-66
2022/03/10 09:02:47;;;;;;;6.50;5.30;;;-2.20;53.80;;;;;;5020876;28;20124;-64
2022/03/10 09:05:13;;;;;;;8.70;4.10;;;-2.10;53.40;;;;;;5017473;28;20025;-64
2022/03/10 09:07:40;;;;;;;6.35;4.97;;;-2.20;53.30;;;;;;5023627;28;20030;-64
2022/03/10 09:10:08;;;;;;;6.18;5.03;;;-2.20;53.00;;;;;;5027568;28;20017;-63
2022/03/10 09:12:34;;;;;;;7.28;4.20;;;-2.20;52.80;;;;;;5023001;28;20021;-65
2022/03/10 09:15:00;;;;;;;5.25;3.75;;;-2.20;52.80;;;;;;5014622;28;20037;-64
2022/03/10 09:17:26;;;;;;;7.03;3.90;;;-2.30;52.60;;;;;;5016798;28;20366;-65
2022/03/10 09:19:51;;;;;;;4.40;4.00;;;-2.30;53.20;;;;;;5012754;28;20040;-65
2022/03/10 09:22:17;;;;;;;5.15;4.60;;;-2.30;53.80;;;;;;5016087;28;20022;-66
2022/03/10 09:24:44;;;;;;;6.18;3.70;;;-2.20;52.70;;;;;;5013768;28;20053;-68
2022/03/10 09:27:12;;;;;;;4.38;3.40;;;-2.20;52.90;;;;;;5018698;28;20044;-67
2022/03/10 09:29:38;;;;;;;5.78;4.72;;;-2.30;53.30;;;;;;5017589;28;20065;-67
2022/03/10 09:32:05;;;;;;;5.05;4.38;;;-2.20;53.70;;;;;;5018472;28;20057;-67
2022/03/10 09:34:31;;;;;;;7.35;4.68;;;-2.10;53.40;;;;;;5015380;28;20403;-68
2022/03/10 09:36:58;;;;;;;7.55;4.85;;;-2.00;53.20;;;;;;5014840;28;21181;-67
2022/03/10 09:39:24;;;;;;;5.30;4.47;;;-1.90;52.80;;;;;;5019539;28;20026;-68
2022/03/10 09:41:50;;;;;;;5.65;4.63;;;-1.90;52.30;;;;;;5019053;28;20033;-66
2022/03/10 09:44:20;;;;;;;5.88;4.70;;;-1.90;53.00;;;;;;5018157;28;20028;-66
2022/03/10 09:46:50;;;;;;;5.10;3.35;;;-1.80;52.80;;;;;;5020649;28;20448;-67
2022/03/10 09:49:20;;;;;;;4.95;4.30;;;-2.00;52.10;;;;;;5020239;28;20045;-66
2022/03/10 09:51:50;;;;;;;3.65;3.15;;;-2.00;52.00;;;;;;5021939;28;20033;-66
2022/03/10 09:54:16;;;;;;;5.82;4.47;;;-2.10;51.60;;;;;;5020603;28;20044;-66
2022/03/10 09:56:43;;;;;;;4.78;4.13;;;-2.00;52.30;;;;;;5021560;28;20091;-66
2022/03/10 09:59:10;;;;;;;4.40;3.20;;;-2.00;51.90;;;;;;5017833;28;20030;-65
2022/03/10 10:01:36;;;;;;;4.75;4.10;;;-2.10;51.80;;;;;;5015835;28;20022;-65
2022/03/10 10:04:02;;;;;;;4.78;4.13;;;-2.00;52.50;;;;;;5020191;28;20126;-65
2022/03/10 10:06:28;;;;;;;5.28;4.10;;;-2.00;52.10;;;;;;5022306;28;20199;-65
2022/03/10 10:08:57;;;;;;;4.45;3.92;;;-2.00;51.30;;;;;;5019503;28;20156;-65
2022/03/10 10:11:33;;;;;;;5.55;4.15;;;-1.90;51.70;;;;;;5021086;28;20025;-65
2022/03/10 10:14:00;;;;;;;9.98;3.63;;;-1.90;51.40;;;;;;5017693;28;20037;-65
2022/03/10 10:16:26;;;;;;;6.28;4.65;;;-2.00;51.30;;;;;;5013858;28;20029;-65
2022/03/10 10:18:58;;;;;;;4.28;3.75;;;-2.00;51.80;;;;;;5023222;28;20033;-65
2022/03/10 10:21:25;;;;;;;3.95;3.50;;;-2.00;51.40;;;;;;5023045;28;20025;-65
2022/03/10 10:23:53;;;;;;;5.70;4.45;;;-2.00;51.80;;;;;;5019876;28;20037;-65
2022/03/10 10:26:26;;;;;;;6.45;4.32;;;-2.00;51.50;;;;;;5018285;28;20060;-65
2022/03/10 10:28:52;;;;;;;5.13;4.05;;;-2.00;51.20;;;;;;5021459;28;20026;-65
2022/03/10 10:31:20;;;;;;;6.03;4.45;;;-1.90;51.70;;;;;;5016157;28;20033;-66
2022/03/10 10:34:06;;;;;;;4.47;3.50;;;-1.90;52.10;;;;;;5020182;28;20653;-65
2022/03/10 10:36:34;;;;;;;5.50;4.30;;;-2.00;51.90;;;;;;5022876;28;20041;-65
2022/03/10 10:39:17;;;;;;;5.47;4.32;;;-1.90;52.80;;;;;;5021906;28;20033;-65
2022/03/10 10:41:47;;;;;;;5.30;3.50;;;-1.90;52.10;;;;;;5020258;28;20026;-65
2022/03/10 10:44:18;;;;;;;5.35;4.20;;;-1.90;52.20;;;;;;5025390;28;20040;-65
2022/03/10 10:46:46;;;;;;;7.00;4.18;;;-1.90;52.20;;;;;;5026520;28;20041;-65
2022/03/10 10:49:16;;;;;;;5.28;4.30;;;-1.80;51.90;;;;;;5023815;28;20033;-65
2022/03/10 10:51:48;;;;;;;6.28;3.40;;;-1.80;51.80;;;;;;5020100;28;20033;-65
2022/03/10 10:54:20;;;;;;;4.97;4.05;;;-1.90;51.60;;;;;;5023447;28;20022;-65
2022/03/10 10:56:55;;;;;;;5.25;4.30;;;-1.80;51.90;;;;;;5022556;28;20033;-65
2022/03/10 10:59:38;;;;;;;7.13;4.47;;;-1.70;51.90;;;;;;5024805;28;20026;-66
2022/03/10 11:02:21;;;;;;;11.40;4.78;;;-1.70;51.70;;;;;;5020384;28;20468;-65
2022/03/10 11:04:49;;;;;;;5.63;4.40;;;-1.80;51.90;;;;;;5021331;28;20044;-65
2022/03/10 11:07:15;;;;;;;4.78;3.20;;;-1.70;52.40;;;;;;5019671;28;20029;-66
2022/03/10 11:09:47;;;;;;;9.00;3.47;;;-1.70;52.50;;;;;;5024753;28;20026;-66
2022/03/10 11:12:15;;;;;;;4.40;4.00;;;-1.80;51.80;;;;;;5020787;28;20033;-66
2022/03/10 11:14:42;;;;;;;5.18;4.18;;;-1.80;51.20;;;;;;5021608;28;20029;-65
2022/03/10 11:17:08;;;;;;;5.55;4.03;;;-1.70;51.10;;;;;;5023987;28;20120;-63
2022/03/10 11:19:38;;;;;;;5.03;4.50;;;-1.70;51.50;;;;;;5019520;28;20061;-66
2022/03/10 11:22:26;;;;;;;4.78;3.92;;;-1.70;51.50;;;;;;5028618;28;20057;-66
2022/03/10 11:25:20;;;;;;;5.25;3.22;;;-1.70;50.70;;;;;;5026388;28;20061;-67
2022/03/10 11:27:53;;;;;;;4.88;4.00;;;-1.70;50.80;;;;;;5023842;28;20483;-66
2022/03/10 11:30:27;;;;;;;3.92;3.58;;;-1.70;51.20;;;;;;5020167;28;20037;-66
2022/03/10 11:33:12;;;;;;;4.38;3.67;;;-1.60;51.20;;;;;;5024785;28;20017;-66
2022/03/10 11:35:43;;;;;;;2.58;2.38;;;-1.60;50.60;;;;;;5027054;28;20069;-66
2022/03/10 11:38:10;;;;;;;4.07;3.67;;;-1.70;50.60;;;;;;5023523;28;20478;-66
2022/03/10 11:40:48;;;;;;;4.30;3.90;;;-1.70;50.90;;;;;;5022996;28;20033;-66
2022/03/10 11:43:40;;;;;;;4.00;3.60;;;-1.60;50.30;;;;;;5025414;28;20108;-67
2022/03/10 11:46:23;;;;;;;4.22;3.70;;;-1.60;50.80;;;;;;5020123;28;20493;-66
2022/03/10 11:49:16;;;;;;;4.63;3.95;;;-1.60;50.40;;;;;;5025151;28;20037;-66
2022/03/10 11:52:03;;;;;;;4.20;3.80;;;-1.50;50.00;;;;;;5015481;28;20568;-66
2022/03/10 11:54:31;;;;;;;5.38;3.60;;;-1.50;50.80;;;;;;5022634;28;20038;-66
2022/03/10 11:57:06;;;;;;;3.67;3.03;;;-1.50;50.50;;;;;;5021496;28;20041;-66
2022/03/10 11:59:32;;;;;;;5.10;3.67;;;-1.60;50.40;;;;;;5022105;28;20056;-66
2022/03/10 12:01:59;;;;;;;3.95;3.58;;;-1.60;50.80;;;;;;5018307;28;20053;-66
2022/03/10 12:04:55;;;;;;;3.10;2.80;;;-1.60;50.50;;;;;;5022338;28;20033;-66
2022/03/10 12:07:28;;;;;;;4.13;3.40;;;-1.60;50.30;;;;;;5008810;28;20034;-67
2022/03/10 12:10:05;;;;;;;4.82;3.55;;;-1.60;49.70;;;;;;5015042;28;20432;-67
2022/03/10 12:12:43;;;;;;;5.43;3.10;;;-1.60;49.00;;;;;;5013511;28;20029;-66
2022/03/10 12:15:29;;;;;;;6.35;3.63;;;-1.70;49.30;;;;;;5020105;28;20041;-66
2022/03/10 12:17:56;;;;;;;5.10;3.88;;;-1.60;50.00;;;;;;5026032;28;20021;-66
2022/03/10 12:20:23;;;;;;;3.78;3.40;;;-1.60;49.80;;;;;;5023353;28;20060;-66
2022/03/10 12:23:09;;;;;;;4.07;3.08;;;-1.50;49.90;;;;;;5020298;28;20030;-66
2022/03/10 12:25:46;;;;;;;3.50;3.20;;;-1.60;50.20;;;;;;5021811;28;20026;-66
2022/03/10 12:28:32;;;;;;;4.00;3.20;;;-1.50;50.60;;;;;;5026425;28;20536;-66
2022/03/10 12:31:10;;;;;;;4.40;3.53;;;-1.50;50.00;;;;;;5020131;28;20053;-66
2022/03/10 12:33:44;;;;;;;3.28;2.60;;;-1.40;49.80;;;;;;5020944;28;20030;-66
2022/03/10 12:36:11;;;;;;;5.05;3.28;;;-1.50;50.30;;;;;;5019863;28;20063;-66
2022/03/10 12:38:46;;;;;;;3.63;3.25;;;-1.40;51.30;;;;;;5021440;28;20056;-66
2022/03/10 12:41:17;;;;;;;4.82;3.20;;;-1.30;51.20;;;;;;5016830;28;20022;-66
2022/03/10 12:43:51;;;;;;;3.17;2.90;;;-1.30;50.20;;;;;;5022269;28;20559;-66
2022/03/10 12:46:17;;;;;;;3.78;3.33;;;-1.30;50.00;;;;;;5017126;28;20038;-66
2022/03/10 12:49:03;;;;;;;3.67;2.80;;;-1.30;49.60;;;;;;5030856;28;20055;-66
2022/03/10 12:51:37;;;;;;;4.63;3.13;;;-1.40;48.80;;;;;;5019968;28;20061;-66